Time;durP1;ratioP1;P1;durP2;ratioP2;P2;SDS_P1;SDS_P2;PMS_P1;PMS_P2;Temp;Humidity;BMP_temperature;BMP_pressure;BME280_temperature;BME280_humidity;BME280_pressure;Samples;Min_cycle;Max_cycle;Signal;HPM_P1;HPM_P2
2024/01/25 00:01:54;;;;;;;3.85;1.95;;;;;;;6.44;76.06;98211.06;1225693;75;2921139;-62
2024/01/25 00:04:27;;;;;;;4.60;2.30;;;;;;;6.45;74.86;98221.50;1224845;75;2920150;-64
2024/01/25 00:07:00;;;;;;;3.45;2.00;;;;;;;6.55;74.72;98206.06;1225291;75;2919795;-63
2024/01/25 00:09:32;;;;;;;3.35;2.00;;;;;;;6.54;73.95;98209.97;1225265;75;2918917;-64
2024/01/25 00:12:06;;;;;;;2.65;1.90;;;;;;;6.58;74.20;98207.91;1225256;75;2915270;-61
2024/01/25 00:14:41;;;;;;;3.75;1.70;;;;;;;6.85;71.77;98193.09;1224474;75;2924600;-64
2024/01/25 00:17:14;;;;;;;2.95;1.60;;;;;;;7.24;68.77;98197.28;1224476;75;2926719;-64
2024/01/25 00:19:47;;;;;;;2.05;0.80;;;;;;;8.58;63.34;98202.31;1224016;75;2945779;-61
2024/01/25 00:22:20;;;;;;;1.55;0.85;;;;;;;9.31;60.47;98188.84;1223686;75;2926551;-66
2024/01/25 00:24:53;;;;;;;2.60;0.85;;;;;;;8.95;60.96;98179.38;1225502;75;2922406;-64
2024/01/25 00:27:25;;;;;;;4.90;0.80;;;;;;;9.10;59.69;98165.16;1224368;75;2930759;-62
2024/01/25 00:30:01;;;;;;;3.85;1.00;;;;;;;9.46;58.37;98160.94;1224342;75;2931023;-65
2024/01/25 00:32:34;;;;;;;2.25;1.20;;;;;;;9.47;58.44;98165.94;1224151;75;2922659;-66
2024/01/25 00:35:09;;;;;;;2.70;1.00;;;;;;;9.30;58.54;98179.13;1224823;75;2922697;-63
2024/01/25 00:37:43;;;;;;;3.35;1.05;;;;;;;9.76;56.56;98176.38;1224191;75;2932487;-65
2024/01/25 00:40:18;;;;;;;2.50;0.80;;;;;;;10.19;54.86;98169.03;1223541;75;2925327;-64
2024/01/25 00:42:53;;;;;;;2.50;0.70;;;;;;;10.29;54.36;98164.31;1223182;75;2930063;-65
2024/01/25 00:45:29;;;;;;;1.55;0.75;;;;;;;10.28;54.03;98176.47;1223899;75;2928956;-63
2024/01/25 00:48:03;;;;;;;1.35;0.70;;;;;;;10.51;53.39;98186.00;1223556;75;2938518;-65
2024/01/25 00:50:37;;;;;;;3.85;0.80;;;;;;;10.23;54.20;98191.50;1223784;75;2927942;-62
2024/01/25 00:53:11;;;;;;;4.30;1.10;;;;;;;10.41;53.73;98193.47;1223545;75;2925126;-65
2024/01/25 00:55:45;;;;;;;1.65;0.95;;;;;;;10.40;53.58;98200.16;1224319;75;2928349;-63
2024/01/25 00:58:19;;;;;;;1.55;0.80;;;;;;;10.41;54.03;98198.19;1224337;75;2928051;-67
2024/01/25 01:00:56;;;;;;;2.35;0.85;;;;;;;10.37;53.51;98216.75;1225010;75;2922817;-67
2024/01/25 01:03:29;;;;;;;2.55;1.00;;;;;;;10.51;53.12;98207.91;1222930;75;2927802;-63
2024/01/25 01:06:03;;;;;;;3.45;1.10;;;;;;;10.45;53.27;98201.53;1224522;75;2918547;-65
2024/01/25 01:08:37;;;;;;;3.00;0.80;;;;;;;10.51;52.47;98196.94;1224323;75;2929488;-64
2024/01/25 01:11:10;;;;;;;2.55;0.65;;;;;;;10.62;52.58;98204.66;1224015;75;2920516;-63
2024/01/25 01:13:43;;;;;;;3.30;1.05;;;;;;;10.61;52.00;98198.41;1223730;75;2923338;-65
2024/01/25 01:16:20;;;;;;;1.65;0.75;;;;;;;10.54;52.90;98198.00;1224208;75;2926728;-62
2024/01/25 01:18:52;;;;;;;2.70;1.10;;;;;;;10.59;52.61;98194.63;1224819;75;2924440;-67
2024/01/25 01:21:25;;;;;;;3.10;0.90;;;;;;;10.71;51.51;98195.66;1224047;75;2919697;-63
2024/01/25 01:23:58;;;;;;;2.85;0.80;;;;;;;10.68;51.43;98196.56;1223632;75;2927822;-69
2024/01/25 01:26:31;;;;;;;2.90;1.05;;;;;;;10.65;52.13;98200.97;1223064;75;2923023;-63
2024/01/25 01:29:03;;;;;;;1.55;0.60;;;;;;;10.72;51.62;98199.91;1224044;67;2923171;-67
2024/01/25 01:31:39;;;;;;;2.25;0.75;;;;;;;10.72;51.52;98197.91;1224403;75;2923917;-63
2024/01/25 01:34:12;;;;;;;1.85;0.55;;;;;;;10.71;51.96;98199.13;1224777;75;2925565;-64
2024/01/25 01:36:45;;;;;;;2.85;0.70;;;;;;;10.73;51.86;98187.72;1224423;75;2924479;-65
2024/01/25 01:39:18;;;;;;;2.70;0.80;;;;;;;10.62;51.85;98172.53;1224687;75;2934220;-64
2024/01/25 01:41:52;;;;;;;1.40;0.70;;;;;;;10.56;52.08;98159.94;1224683;75;2928152;-63
2024/01/25 01:44:25;;;;;;;1.65;0.60;;;;;;;10.69;52.35;98163.25;1224499;75;2925719;-64
2024/01/25 01:47:00;;;;;;;1.10;0.50;;;;;;;10.54;51.66;98154.94;1224645;75;2926243;-68
2024/01/25 01:49:33;;;;;;;3.20;0.80;;;;;;;10.76;51.60;98162.16;1224658;75;2923112;-65
2024/01/25 01:52:07;;;;;;;1.50;0.60;;;;;;;10.74;51.10;98157.13;1223840;75;2931459;-67
2024/01/25 01:54:40;;;;;;;2.50;0.60;;;;;;;10.71;51.64;98165.53;1224994;75;2923632;-65
2024/01/25 01:57:13;;;;;;;1.45;0.50;;;;;;;10.80;51.06;98154.50;1224448;75;2920179;-65
2024/01/25 01:59:48;;;;;;;2.70;0.70;;;;;;;10.76;50.62;98149.22;1224247;75;2927285;-63
2024/01/25 02:02:24;;;;;;;2.70;0.65;;;;;;;10.79;51.75;98147.53;1224521;75;2923799;-65
2024/01/25 02:04:57;;;;;;;2.45;0.75;;;;;;;10.63;52.30;98149.44;1225768;75;2921492;-64
2024/01/25 02:07:30;;;;;;;1.30;0.70;;;;;;;10.48;52.48;98151.31;1226676;75;2842507;-62
2024/01/25 02:10:03;;;;;;;1.35;0.85;;;;;;;9.71;54.93;98151.66;1226009;75;2917529;-63
2024/01/25 02:12:36;;;;;;;2.05;0.90;;;;;;;9.53;54.37;98155.91;1224266;75;2925011;-65
2024/01/25 02:15:10;;;;;;;3.60;1.30;;;;;;;9.71;54.32;98159.84;1221794;75;2924686;-63
2024/01/25 02:17:46;;;;;;;2.65;1.00;;;;;;;9.24;55.52;98167.28;1225680;75;2919254;-65
2024/01/25 02:20:21;;;;;;;1.75;1.05;;;;;;;8.92;57.17;98160.41;1224814;75;2928108;-64
2024/01/25 02:22:57;;;;;;;3.05;1.50;;;;;;;9.03;56.78;98162.72;1223914;75;2919058;-66
2024/01/25 02:25:29;;;;;;;2.55;1.40;;;;;;;8.73;57.74;98162.31;1224507;75;2920917;-63
2024/01/25 02:28:02;;;;;;;3.60;1.45;;;;;;;8.60;57.44;98167.16;1224751;75;2915026;-65
2024/01/25 02:30:35;;;;;;;4.20;1.85;;;;;;;8.21;59.73;98169.38;1225184;75;2918982;-61
2024/01/25 02:33:08;;;;;;;2.70;1.30;;;;;;;8.24;59.64;98169.22;1224471;75;2930412;-67
2024/01/25 02:35:42;;;;;;;4.70;1.65;;;;;;;7.88;60.81;98167.81;1225382;75;2922197;-62
2024/01/25 02:38:17;;;;;;;5.65;1.70;;;;;;;8.11;59.79;98163.13;1224154;67;2925640;-66
2024/01/25 02:40:50;;;;;;;2.35;1.30;;;;;;;8.29;60.23;98165.16;1224644;75;2928832;-62
2024/01/25 02:43:23;;;;;;;2.20;1.05;;;;;;;7.96;60.72;98176.50;1225086;75;2919689;-64
2024/01/25 02:45:55;;;;;;;3.30;1.50;;;;;;;7.51;61.50;98185.13;1224257;75;2915486;-65
2024/01/25 02:48:29;;;;;;;5.40;2.05;;;;;;;7.61;61.47;98182.00;1224705;75;2919908;-66
2024/01/25 02:51:01;;;;;;;3.00;1.85;;;;;;;7.47;62.29;98175.09;1225188;75;2918397;-63
2024/01/25 02:53:37;;;;;;;4.45;1.30;;;;;;;7.32;62.61;98186.91;1223861;75;2924467;-63
2024/01/25 02:56:10;;;;;;;3.55;1.85;;;;;;;7.14;63.25;98171.16;1224750;75;2929055;-65
2024/01/25 02:58:40;;;;;;;3.00;1.75;;;;;;;7.24;62.95;98181.72;1223581;75;2917963;-65
2024/01/25 03:01:13;;;;;;;2.35;1.30;;;;;;;7.21;62.52;98189.97;1224515;75;2921160;-66
2024/01/25 03:03:47;;;;;;;3.75;1.50;;;;;;;6.98;63.47;98213.66;1224284;75;2925997;-65
2024/01/25 03:06:19;;;;;;;5.55;2.15;;;;;;;6.42;65.98;98213.44;1225401;75;2924210;-63
2024/01/25 03:08:55;;;;;;;5.90;1.85;;;;;;;6.37;66.06;98201.94;1225069;75;2916726;-65
2024/01/25 03:11:28;;;;;;;4.55;2.50;;;;;;;6.41;65.50;98193.66;1224337;75;2924798;-68
2024/01/25 03:14:00;;;;;;;4.05;2.20;;;;;;;6.45;66.13;98188.13;1224135;75;2919151;-62
2024/01/25 03:16:33;;;;;;;3.90;2.00;;;;;;;6.27;66.45;98202.22;1224715;75;2924237;-67
2024/01/25 03:19:06;;;;;;;5.40;2.40;;;;;;;6.26;65.92;98206.16;1224751;75;2924837;-68
2024/01/25 03:21:39;;;;;;;3.40;1.95;;;;;;;6.33;65.68;98223.03;1224490;75;2916273;-65
2024/01/25 03:24:15;;;;;;;4.80;2.00;;;;;;;6.45;65.56;98197.03;1224718;75;2928353;-64
2024/01/25 03:26:48;;;;;;;3.80;2.10;;;;;;;7.04;62.09;98192.09;1224741;75;2920311;-64
2024/01/25 03:29:21;;;;;;;3.35;1.45;;;;;;;7.96;57.83;98192.09;1225049;75;2921365;-61
2024/01/25 03:31:54;;;;;;;2.75;1.20;;;;;;;9.07;52.59;98188.66;1223667;75;2925350;-62
2024/01/25 03:34:26;;;;;;;2.30;0.80;;;;;;;9.52;51.30;98178.22;1222835;75;2925981;-61
2024/01/25 03:36:59;;;;;;;2.45;0.80;;;;;;;9.79;50.69;98177.47;1224160;75;2927099;-62
2024/01/25 03:39:34;;;;;;;2.10;0.50;;;;;;;9.71;51.41;98178.97;1224946;75;2920645;-63
2024/01/25 03:42:08;;;;;;;1.70;0.65;;;;;;;9.90;50.54;98196.88;1224149;75;2941834;-65
2024/01/25 03:44:42;;;;;;;3.20;0.90;;;;;;;9.89;50.64;98198.13;1223333;75;2955031;-63
2024/01/25 03:47:15;;;;;;;1.80;0.70;;;;;;;9.88;50.15;98193.84;1215310;75;3598745;-63
2024/01/25 03:49:48;;;;;;;2.35;0.60;;;;;;;10.01;49.15;98175.31;1224247;75;2919624;-64
2024/01/25 03:52:21;;;;;;;1.25;0.60;;;;;;;10.02;50.47;98181.53;1224442;75;2923768;-64
2024/01/25 03:54:57;;;;;;;2.40;0.65;;;;;;;10.17;49.67;98196.09;1223518;75;2929282;-63
2024/01/25 03:57:29;;;;;;;2.50;0.90;;;;;;;10.17;49.78;98192.59;1224190;75;2928639;-62
2024/01/25 04:00:02;;;;;;;2.95;0.90;;;;;;;10.20;49.25;98197.16;1224518;75;2926594;-61
2024/01/25 04:02:35;;;;;;;2.65;0.70;;;;;;;10.12;49.66;98180.28;1223269;75;2922532;-64
2024/01/25 04:05:09;;;;;;;2.25;0.65;;;;;;;10.19;49.75;98190.16;1224091;75;2934860;-63
2024/01/25 04:07:42;;;;;;;3.40;0.85;;;;;;;10.06;50.25;98193.06;1225029;75;2925769;-64
2024/01/25 04:10:18;;;;;;;2.25;0.60;;;;;;;10.08;50.19;98195.34;1223771;75;2932183;-64
2024/01/25 04:12:51;;;;;;;3.95;1.05;;;;;;;10.14;49.77;98194.25;1224497;75;2926907;-66
2024/01/25 04:15:23;;;;;;;4.95;1.15;;;;;;;10.00;50.37;98206.59;1224592;75;2924375;-65
2024/01/25 04:17:56;;;;;;;1.50;0.80;;;;;;;10.05;50.40;98199.75;1223121;75;2925086;-63
2024/01/25 04:20:29;;;;;;;2.80;0.90;;;;;;;10.09;49.71;98222.25;1222069;75;2962590;-65
2024/01/25 04:23:02;;;;;;;3.00;0.90;;;;;;;10.06;50.76;98222.41;1224934;75;2925418;-64
2024/01/25 04:25:37;;;;;;;3.45;1.30;;;;;;;9.98;50.61;98211.78;1224840;75;2920792;-63
2024/01/25 04:28:10;;;;;;;1.35;0.50;;;;;;;9.95;50.74;98215.41;1224523;75;2893519;-62
2024/01/25 04:30:43;;;;;;;2.50;1.00;;;;;;;9.73;51.28;98218.31;1224642;75;2925304;-63
2024/01/25 04:33:16;;;;;;;2.40;0.80;;;;;;;9.78;51.51;98219.69;1223534;75;2919718;-64
2024/01/25 04:35:48;;;;;;;6.25;1.20;;;;;;;9.85;51.74;98210.44;1224179;75;2927202;-66
2024/01/25 04:38:21;;;;;;;3.30;0.85;;;;;;;9.78;52.10;98219.69;1224508;75;2921505;-63
2024/01/25 04:40:57;;;;;;;2.25;0.70;;;;;;;9.79;52.13;98196.63;1224263;75;2923791;-64
2024/01/25 04:43:29;;;;;;;1.45;0.50;;;;;;;9.76;52.05;98202.97;1223502;75;2919781;-64
2024/01/25 04:46:02;;;;;;;2.70;0.90;;;;;;;9.77;51.85;98208.00;1224302;75;2924725;-67
2024/01/25 04:48:36;;;;;;;1.45;0.65;;;;;;;9.54;52.31;98214.81;1223917;75;2927630;-67
2024/01/25 04:51:09;;;;;;;3.75;1.05;;;;;;;9.76;52.20;98252.94;1224274;75;2927835;-65
2024/01/25 04:53:42;;;;;;;2.45;0.60;;;;;;;9.71;52.19;98226.22;1224161;75;2926640;-63
2024/01/25 04:56:18;;;;;;;2.20;0.75;;;;;;;9.64;52.75;98217.56;1222107;75;2921731;-66
2024/01/25 04:58:51;;;;;;;2.00;0.70;;;;;;;9.56;53.20;98256.13;1225043;75;2922458;-62
2024/01/25 05:01:23;;;;;;;2.60;0.60;;;;;;;9.51;54.04;98239.59;1223149;75;2926958;-64
2024/01/25 05:03:56;;;;;;;4.05;0.85;;;;;;;9.49;53.89;98228.34;1223754;75;2922353;-64
2024/01/25 05:06:29;;;;;;;1.80;0.60;;;;;;;9.51;53.97;98215.72;1224141;75;2927589;-63
2024/01/25 05:09:02;;;;;;;1.10;0.50;;;;;;;9.49;53.84;98233.81;1225229;75;2927661;-64
2024/01/25 05:11:40;;;;;;;3.05;0.55;;;;;;;9.43;54.99;98255.53;1223604;75;2925261;-63
2024/01/25 05:14:13;;;;;;;;;;;;;;;9.26;54.65;98246.03;1224306;75;2921438;-67
2024/01/25 05:16:46;;;;;;;25.25;15.55;;;;;;;9.24;55.66;98251.22;1224148;75;2931983;-63
2024/01/25 05:19:18;;;;;;;7.05;3.90;;;;;;;9.10;55.76;98255.28;1223194;67;2931168;-66
2024/01/25 05:21:51;;;;;;;8.60;3.50;;;;;;;9.11;55.35;98262.25;1224416;75;2922543;-64
2024/01/25 05:24:24;;;;;;;6.00;3.80;;;;;;;9.08;55.25;98247.53;1223662;75;2922618;-63
2024/01/25 05:26:59;;;;;;;13.60;9.60;;;;;;;9.08;55.30;98260.44;1223409;75;2928934;-66
2024/01/25 05:29:32;;;;;;;7.15;3.55;;;;;;;8.80;56.17;98270.47;1224441;75;2921997;-61
2024/01/25 05:32:05;;;;;;;1.95;1.10;;;;;;;9.01;56.55;98277.84;1223566;75;2925156;-62
2024/01/25 05:34:39;;;;;;;25.95;17.10;;;;;;;8.91;56.83;98284.50;1223999;75;2936785;-67
2024/01/25 05:37:11;;;;;;;6.75;2.80;;;;;;;9.05;56.73;98286.69;1224810;75;2918885;-63
2024/01/25 05:39:44;;;;;;;4.75;2.55;;;;;;;8.92;56.84;98286.78;1223969;75;2923082;-62
2024/01/25 05:42:20;;;;;;;7.45;2.80;;;;;;;8.83;57.50;98284.00;1223036;75;2924198;-61
2024/01/25 05:44:52;;;;;;;17.70;1.65;;;;;;;8.98;57.27;98297.88;1224078;75;2955962;-60
2024/01/25 05:47:25;;;;;;;10.85;7.05;;;;;;;8.86;58.01;98288.56;1224617;75;2926950;-63
2024/01/25 05:49:58;;;;;;;7.20;3.85;;;;;;;8.84;58.31;98290.97;1224747;75;2925634;-63
2024/01/25 05:52:31;;;;;;;3.20;1.30;;;;;;;8.80;58.73;98312.19;1223143;75;2925021;-63
2024/01/25 05:55:04;;;;;;;3.10;0.75;;;;;;;8.82;58.82;98315.22;1223627;75;2926887;-66
2024/01/25 05:57:40;;;;;;;2.25;0.70;;;;;;;8.69;59.42;98307.13;1223687;75;2922944;-65
2024/01/25 06:00:16;;;;;;;2.60;0.80;;;;;;;8.74;59.72;98306.56;1223521;75;2947263;-63
2024/01/25 06:02:48;;;;;;;5.20;0.60;;;;;;;8.61;59.98;98305.09;1223074;75;2927040;-65
2024/01/25 06:05:21;;;;;;;2.50;0.70;;;;;;;8.62;60.86;98293.75;1223707;75;2930521;-62
2024/01/25 06:07:54;;;;;;;3.70;1.00;;;;;;;8.56;60.45;98311.16;1224245;75;2926672;-63
2024/01/25 06:10:27;;;;;;;1.20;0.45;;;;;;;8.50;60.99;98300.06;1223631;75;2927391;-62
2024/01/25 06:13:02;;;;;;;1.90;0.60;;;;;;;8.39;61.66;98314.03;1222976;75;2926755;-64
2024/01/25 06:15:35;;;;;;;0.95;0.50;;;;;;;8.40;61.91;98323.03;1224131;75;2928333;-63
2024/01/25 06:18:08;;;;;;;2.35;0.70;;;;;;;8.43;61.79;98317.44;1223390;75;2925847;-65
2024/01/25 06:20:41;;;;;;;1.10;0.50;;;;;;;8.38;62.01;98320.72;1224263;75;2921746;-63
2024/01/25 06:23:14;;;;;;;5.45;0.60;;;;;;;8.35;62.48;98312.66;1223055;75;2924847;-60
2024/01/25 06:25:47;;;;;;;2.05;0.65;;;;;;;8.42;62.81;98315.13;1223978;75;2929647;-67
2024/01/25 06:28:23;;;;;;;0.90;0.50;;;;;;;8.38;62.56;98298.88;1223499;75;2922620;-65
2024/01/25 06:30:55;;;;;;;2.25;0.70;;;;;;;8.21;63.35;98295.59;1224781;75;2879275;-64
2024/01/25 06:33:28;;;;;;;1.85;0.80;;;;;;;8.24;63.39;98305.59;1223501;75;2920362;-65
2024/01/25 06:36:03;;;;;;;2.55;0.70;;;;;;;8.29;63.28;98309.72;1224284;75;2930836;-63
2024/01/25 06:38:39;;;;;;;2.80;1.30;;;;;;;8.22;64.17;98320.88;1223907;75;2922214;-66
2024/01/25 06:41:12;;;;;;;2.60;1.00;;;;;;;8.23;63.76;98319.69;1223732;75;2922417;-66
2024/01/25 06:43:47;;;;;;;1.15;0.70;;;;;;;8.20;63.82;98320.56;1223182;75;2921716;-65
2024/01/25 06:46:20;;;;;;;1.20;0.40;;;;;;;8.25;63.71;98328.97;1224310;75;2924562;-63
2024/01/25 06:48:54;;;;;;;1.00;0.40;;;;;;;8.34;63.76;98341.88;1224868;75;2921605;-65
2024/01/25 06:51:27;;;;;;;1.45;0.60;;;;;;;8.25;64.11;98352.72;1224300;75;2925610;-65
2024/01/25 06:53:59;;;;;;;1.65;0.40;;;;;;;8.19;64.51;98352.53;1223152;75;2929828;-65
2024/01/25 06:56:34;;;;;;;1.25;0.40;;;;;;;8.22;64.63;98348.91;1224997;75;2928920;-66
2024/01/25 06:59:09;;;;;;;1.80;0.80;;;;;;;8.19;64.71;98336.19;1224554;75;2921708;-63
2024/01/25 07:01:42;;;;;;;2.25;0.65;;;;;;;8.19;64.59;98327.25;1224502;75;2926048;-66
2024/01/25 07:04:15;;;;;;;2.30;0.70;;;;;;;8.07;65.30;98348.66;1224252;75;2926784;-63
2024/01/25 07:06:50;;;;;;;2.25;0.55;;;;;;;8.16;65.71;98339.03;1224360;75;2920801;-64
2024/01/25 07:09:22;;;;;;;2.75;0.60;;;;;;;8.24;65.81;98368.34;1224313;75;2922870;-63
2024/01/25 07:11:55;;;;;;;1.00;0.50;;;;;;;8.16;65.81;98364.34;1224209;75;2926680;-62
2024/01/25 07:14:30;;;;;;;1.10;0.60;;;;;;;8.26;65.69;98376.84;1223034;75;2925663;-61
2024/01/25 07:17:03;;;;;;;2.00;0.70;;;;;;;8.43;65.39;98368.53;1223658;75;2923111;-64
2024/01/25 07:19:36;;;;;;;2.60;0.80;;;;;;;8.46;65.56;98370.34;1224171;75;2931614;-62
2024/01/25 07:22:11;;;;;;;3.70;0.80;;;;;;;9.02;64.86;98355.06;1224329;75;2930755;-64
2024/01/25 07:24:45;;;;;;;3.15;0.60;;;;;;;9.42;63.86;98363.28;1224985;75;2921861;-64
2024/01/25 07:27:17;;;;;;;1.95;0.60;;;;;;;11.06;59.39;98360.31;1224280;75;2931307;-65
2024/01/25 07:29:53;;;;;;;1.75;0.70;;;;;;;11.84;56.98;98369.56;1224136;67;2938231;-64
2024/01/25 07:32:26;;;;;;;2.00;0.65;;;;;;;13.34;53.82;98366.56;1224411;75;2928512;-64
2024/01/25 07:34:59;;;;;;;1.20;0.45;;;;;;;14.87;50.34;98374.69;1223945;75;2942220;-63
2024/01/25 07:37:32;;;;;;;2.05;0.90;;;;;;;15.49;49.13;98372.41;1223451;75;2946404;-65
2024/01/25 07:40:06;;;;;;;0.80;0.55;;;;;;;13.45;51.82;98370.72;1223520;75;2924481;-64
2024/01/25 07:42:39;;;;;;;1.40;0.45;;;;;;;14.56;50.19;98359.63;1223909;75;2928623;-63
2024/01/25 07:45:15;;;;;;;1.45;0.50;;;;;;;14.52;50.14;98359.03;1223950;75;2925914;-65
2024/01/25 07:47:48;;;;;;;0.85;0.30;;;;;;;12.83;53.67;98342.22;1223289;75;2930101;-66
2024/01/25 07:50:21;;;;;;;5.75;0.70;;;;;;;11.58;56.62;98355.53;1225136;75;2918474;-65
2024/01/25 07:52:54;;;;;;;10.85;0.60;;;;;;;10.59;58.85;98343.22;1223851;75;2925105;-65
2024/01/25 07:55:27;;;;;;;6.95;3.65;;;;;;;10.71;59.63;98329.81;1223286;75;2925503;-61
2024/01/25 07:58:00;;;;;;;2.80;0.75;;;;;;;9.69;61.00;98309.91;1223514;75;2916116;-66
2024/01/25 08:00:35;;;;;;;1.75;0.50;;;;;;;10.27;60.68;98269.94;1224361;75;2922939;-66
2024/01/25 08:03:08;;;;;;;0.30;0.30;;;;;;;11.24;58.08;98280.00;1223543;75;2925217;-64
2024/01/25 08:05:41;;;;;;;0.50;0.40;;;;;;;12.46;55.82;98310.41;1224852;75;2919988;-63
2024/01/25 08:08:14;;;;;;;0.75;0.30;;;;;;;12.51;54.75;98317.97;1223994;75;2920676;-62
2024/01/25 08:10:47;;;;;;;1.25;0.30;;;;;;;12.96;53.88;98316.00;1224369;75;2921645;-63
2024/01/25 08:13:19;;;;;;;0.65;0.35;;;;;;;13.77;51.97;98325.66;1223772;75;2923714;-62
2024/01/25 08:15:55;;;;;;;1.50;0.50;;;;;;;14.05;51.08;98308.72;1224415;75;2922595;-65
2024/01/25 08:18:29;;;;;;;4.05;0.50;;;;;;;13.41;51.81;98307.66;1223508;75;2920488;-62
2024/01/25 08:21:02;;;;;;;0.65;0.40;;;;;;;12.91;53.05;98308.38;1223732;75;2919255;-67
2024/01/25 08:23:35;;;;;;;4.65;0.60;;;;;;;12.36;53.68;98315.22;1224130;75;2922225;-66
2024/01/25 08:26:09;;;;;;;0.30;0.30;;;;;;;12.71;53.99;98295.34;1223767;75;2945097;-64
2024/01/25 08:28:44;;;;;;;0.75;0.20;;;;;;;12.62;53.51;98295.44;1223751;75;2922998;-64
2024/01/25 08:31:19;;;;;;;1.20;0.40;;;;;;;12.12;54.85;98295.28;1223840;75;2931180;-63
2024/01/25 08:33:52;;;;;;;1.45;0.50;;;;;;;12.20;55.38;98292.94;1223733;75;2922352;-64
2024/01/25 08:36:25;;;;;;;0.95;0.40;;;;;;;12.21;55.27;98291.72;1223673;75;2931978;-63
2024/01/25 08:38:58;;;;;;;1.55;0.20;;;;;;;11.37;56.58;98282.53;1224218;75;2921426;-61
2024/01/25 08:41:31;;;;;;;0.90;0.30;;;;;;;11.28;56.60;98275.09;1224025;75;2921259;-64
2024/01/25 08:44:04;;;;;;;0.30;0.30;;;;;;;11.30;56.30;98272.66;1223499;75;2918678;-66
2024/01/25 08:46:39;;;;;;;0.60;0.30;;;;;;;11.70;55.63;98277.75;1224378;75;2925250;-62
2024/01/25 08:49:12;;;;;;;0.75;0.20;;;;;;;11.55;56.32;98298.13;1224695;75;2920973;-65
2024/01/25 08:51:45;;;;;;;0.80;0.30;;;;;;;12.47;54.06;98294.69;1224261;75;2918507;-65
2024/01/25 08:54:18;;;;;;;0.65;0.40;;;;;;;12.44;53.64;98292.88;1222053;75;2923189;-63
2024/01/25 08:56:51;;;;;;;4.75;0.80;;;;;;;12.18;53.98;98306.38;1224035;75;2917401;-63
2024/01/25 08:59:29;;;;;;;0.40;0.20;;;;;;;12.41;52.75;98297.34;1223137;75;2921753;-62
2024/01/25 09:02:05;;;;;;;1.15;0.60;;;;;;;11.89;54.79;98294.84;1195123;75;5353973;-64
2024/01/25 09:04:37;;;;;;;1.05;0.50;;;;;;;11.82;54.40;98303.41;1224972;75;2922605;-63
2024/01/25 09:07:11;;;;;;;1.65;0.70;;;;;;;11.87;55.17;98302.78;1225005;75;2929860;-63
2024/01/25 09:09:43;;;;;;;0.45;0.25;;;;;;;12.22;54.18;98296.75;1225597;75;2918834;-64
2024/01/25 09:12:16;;;;;;;3.70;0.20;;;;;;;12.50;54.44;98310.19;1224048;75;2925373;-64
2024/01/25 09:14:49;;;;;;;0.50;0.20;;;;;;;12.77;52.79;98318.19;1224772;75;2923322;-63
2024/01/25 09:17:24;;;;;;;0.60;0.30;;;;;;;12.55;53.12;98310.31;1225013;75;2923109;-61
2024/01/25 09:19:58;;;;;;;0.50;0.40;;;;;;;12.12;53.82;98315.28;1223819;75;2939185;-67
2024/01/25 09:22:31;;;;;;;2.35;0.70;;;;;;;12.52;52.69;98319.47;1224089;75;2918936;-62
2024/01/25 09:25:04;;;;;;;0.30;0.30;;;;;;;12.53;51.31;98317.50;1223956;75;2924607;-65
2024/01/25 09:27:38;;;;;;;1.70;0.50;;;;;;;12.68;52.81;98321.00;1224292;75;2924228;-66
2024/01/25 09:30:12;;;;;;;0.80;0.30;;;;;;;13.28;49.53;98334.72;1224208;75;2917855;-66
2024/01/25 09:32:47;;;;;;;1.00;0.50;;;;;;;12.22;50.46;98331.66;1223628;75;2922342;-67
2024/01/25 09:35:20;;;;;;;2.05;0.45;;;;;;;12.25;51.11;98347.19;1223164;75;2920310;-64
2024/01/25 09:37:54;;;;;;;5.05;0.60;;;;;;;11.80;51.66;98325.06;1223551;75;2923918;-64
2024/01/25 09:40:27;;;;;;;0.50;0.30;;;;;;;12.90;49.08;98342.59;1224187;75;2931707;-65
2024/01/25 09:43:00;;;;;;;1.10;0.80;;;;;;;12.79;49.30;98334.16;1223546;75;2926455;-63
2024/01/25 09:45:35;;;;;;;1.85;0.50;;;;;;;11.49;50.82;98348.09;1223974;75;2916518;-67
2024/01/25 09:48:11;;;;;;;5.10;0.75;;;;;;;12.06;49.54;98350.06;1223462;75;2926785;-67
2024/01/25 09:50:44;;;;;;;2.40;0.40;;;;;;;12.65;48.52;98348.66;1223878;75;2927297;-67
2024/01/25 09:53:24;;;;;;;2.80;0.45;;;;;;;12.74;47.72;98341.09;1223675;75;2924041;-63
2024/01/25 09:56:08;;;;;;;4.80;0.60;;;;;;;12.81;47.75;98339.94;1224836;75;2928736;-66
2024/01/25 09:58:45;;;;;;;1.55;0.50;;;;;;;13.12;46.12;98344.19;1225651;75;2919399;-65
2024/01/25 10:01:19;;;;;;;2.05;0.50;;;;;;;13.77;45.87;98346.91;1224144;75;2930086;-64
2024/01/25 10:03:56;;;;;;;2.65;0.70;;;;;;;13.73;46.35;98351.84;1224675;75;2923039;-65
2024/01/25 10:06:29;;;;;;;4.90;1.35;;;;;;;12.74;47.52;98345.81;1223446;75;2927538;-64
2024/01/25 10:09:03;;;;;;;2.65;1.10;;;;;;;12.24;48.08;98351.94;1223973;75;2923580;-63
2024/01/25 10:11:39;;;;;;;3.10;0.70;;;;;;;12.05;48.10;98348.56;1223882;75;2931197;-65
2024/01/25 10:14:12;;;;;;;1.90;0.65;;;;;;;12.36;47.39;98342.69;1223433;75;2937934;-62
2024/01/25 10:16:45;;;;;;;3.50;0.75;;;;;;;13.43;44.58;98322.44;1224047;75;2929724;-64
2024/01/25 10:19:21;;;;;;;3.25;0.80;;;;;;;15.05;42.71;98337.75;1223864;75;2932048;-67
2024/01/25 10:21:54;;;;;;;2.90;0.80;;;;;;;13.35;44.44;98331.59;1222404;75;2924913;-66
2024/01/25 10:24:26;;;;;;;1.85;0.50;;;;;;;13.70;44.63;98315.06;1222648;75;2925033;-67
2024/01/25 10:26:59;;;;;;;1.90;0.80;;;;;;;14.69;42.97;98326.91;1223622;75;2979427;-62
2024/01/25 10:29:32;;;;;;;0.90;0.40;;;;;;;15.33;42.32;98327.69;1224479;75;2921335;-62
2024/01/25 10:32:06;;;;;;;3.80;1.10;;;;;;;14.03;43.42;98322.97;1223959;75;2921274;-63
2024/01/25 10:34:42;;;;;;;4.20;1.00;;;;;;;15.23;42.94;98329.13;1224642;75;2925934;-64
2024/01/25 10:37:18;;;;;;;1.65;0.55;;;;;;;15.70;40.27;98326.91;1224175;75;2951300;-67
2024/01/25 10:39:51;;;;;;;1.55;0.70;;;;;;;13.92;42.90;98320.06;1224975;75;2918178;-61
2024/01/25 10:42:24;;;;;;;2.10;0.70;;;;;;;15.74;40.63;98324.69;1222898;75;2930210;-66
2024/01/25 10:44:57;;;;;;;2.80;0.80;;;;;;;14.15;42.80;98314.84;1223570;75;2923209;-66
2024/01/25 10:47:34;;;;;;;1.55;0.60;;;;;;;14.96;40.85;98332.41;1223641;75;2933150;-63
2024/01/25 10:50:11;;;;;;;3.60;1.15;;;;;;;12.73;43.17;98292.13;1223911;75;2926625;-64
2024/01/25 10:52:45;;;;;;;7.60;1.30;;;;;;;12.76;43.40;98304.91;1223225;75;2925998;-62
2024/01/25 10:55:19;;;;;;;7.65;1.40;;;;;;;13.63;41.82;98293.44;1222883;75;2931269;-66
2024/01/25 10:57:52;;;;;;;6.10;1.25;;;;;;;13.63;42.23;98291.44;1222755;75;2924773;-63
2024/01/25 11:00:25;;;;;;;3.50;1.15;;;;;;;13.35;42.37;98287.59;1222870;75;2930734;-66
2024/01/25 11:03:00;;;;;;;4.30;1.10;;;;;;;12.84;42.97;98294.28;1222924;75;2924521;-65
2024/01/25 11:05:36;;;;;;;4.45;1.20;;;;;;;12.74;42.89;98280.63;1224178;75;2924711;-67
2024/01/25 11:08:21;;;;;;;1.80;0.80;;;;;;;12.90;43.17;98293.16;1223488;75;2941900;-67
2024/01/25 11:10:55;;;;;;;6.15;1.45;;;;;;;13.43;41.86;98289.44;1223593;75;2923253;-69
2024/01/25 11:13:30;;;;;;;4.55;1.30;;;;;;;12.84;42.74;98269.56;1221796;75;2921843;-64
2024/01/25 11:16:13;;;;;;;4.70;1.85;;;;;;;13.14;42.90;98264.75;1223873;75;2929512;-65
2024/01/25 11:18:58;;;;;;;5.60;1.30;;;;;;;13.16;42.38;98271.28;1223888;75;2929250;-66
2024/01/25 11:21:46;;;;;;;3.65;0.80;;;;;;;15.35;38.94;98263.75;1224313;75;2924593;-62
2024/01/25 11:24:22;;;;;;;5.45;1.40;;;;;;;13.70;41.67;98267.53;1224502;75;2922724;-64
2024/01/25 11:26:57;;;;;;;3.30;1.15;;;;;;;13.40;41.30;98262.16;1224393;75;2928338;-64
2024/01/25 11:29:30;;;;;;;10.60;2.90;;;;;;;13.26;41.56;98274.69;1223504;75;2933181;-62
2024/01/25 11:32:03;;;;;;;4.00;0.95;;;;;;;14.16;40.09;98278.53;1223744;75;2954210;-64
2024/01/25 11:34:36;;;;;;;6.35;1.40;;;;;;;14.76;38.90;98273.38;1223831;75;2929764;-64
2024/01/25 11:37:11;;;;;;;6.80;1.25;;;;;;;14.24;38.96;98259.63;1223708;75;2933588;-66
2024/01/25 11:39:46;;;;;;;5.85;1.40;;;;;;;14.27;39.77;98270.41;1223103;75;2932658;-64
2024/01/25 11:42:19;;;;;;;9.05;1.35;;;;;;;12.99;40.39;98262.06;1222461;75;2923925;-62
2024/01/25 11:44:52;;;;;;;5.05;1.00;;;;;;;13.08;40.50;98255.66;1223812;75;2920446;-63
2024/01/25 11:47:25;;;;;;;6.15;0.95;;;;;;;13.64;39.11;98259.97;1223519;75;2930962;-65
2024/01/25 11:49:58;;;;;;;4.85;1.35;;;;;;;13.02;40.48;98263.84;1221631;75;2934063;-68
2024/01/25 11:52:34;;;;;;;4.45;0.90;;;;;;;12.98;41.08;98266.78;1222194;75;2923086;-63